Head Waters, VA (24442)

8:59 PM EST on February 12, 2016 (GMT -0500)
KVAMONTE3 | | Change Station
CLOSE
Current Station
Personal Weather Station
Location: Monterey, VA
Elevation: 2924 ft
Nearby Weather Stations
Active Advisory: Wind Chill Advisory

Elev 2924 ft 38.41 °N, 79.58 °W | Updated 4 minutes ago

Overcast
Overcast
20.1 °F
Feels Like 7 °F
N
14.0
Wind Variable Wind from SSW
Gusts 23.0 mph

Today
High -- | Low -- °F
--% Chance of Precip.
Yesterday
High -- | Low -- °F
Precip. -- in
Pressure 29.96 in
Visibility 10.0 miles
Clouds Scattered Clouds 4100 ft
Overcast 5000 ft
Windchill 7 °F
Dew Point 12 °F
Humidity 71%
Rainfall 0.00 in
Snow Depth Not available.
7:12 AM 5:52 PM
Waxing Crescent, 25% visible
METAR KSHD 130135Z AUTO 32004KT 10SM SCT041 OVC050 01/M05 A2996 RMK AO2 T00091046
Pressure 29.96 in
Visibility 10.0 miles
Clouds Scattered Clouds 4100 ft
Overcast 5000 ft
Windchill 7 °F
Dew Point 12 °F
Humidity 71%
Rainfall 0.00 in
Snow Depth Not available.
7:12 AM 5:52 PM
Waxing Crescent, 25% visible
METAR KSHD 130135Z AUTO 32004KT 10SM SCT041 OVC050 01/M05 A2996 RMK AO2 T00091046

10-Day Weather Forecast

Almanac

Astronomy

Feb. 12, 2016 Rise Set
Actual Time
Civil Twilight
Nautical Twilight
Astronomical Twilight
Moon
Length of Visible Light
Length of Day
Tomorrow will be .
, % of the Moon is Illuminated

Today's Extremes

State Highs State Lows

Community

WunderPhotos

Upload Photos

1,892,459 photos uploaded!

WunderBlog® & News

Nearby

Air Quality

  Air Quality AQ Index Pollutant
Not available.

Snow Depth

Station Depth Elevation

Earthquake Activity

City Distance Mag. Time & Date
Minimum magnitude displayed is 2.5.

Coastal Water Temperatures

Place Temperature

Stations

Nearby Weather Stations

Station Location Temp. Windchill Dew Point Humidity Wind Precip. Elev Updated Type
                   

Watches & Warnings

Wind Chill Advisory
Issued: 8:23 PM EST Feb. 12, 2016 – National Weather Service

... Wind Chill Advisory remains in effect from midnight tonight to
9 am EST Sunday...

* wind chills... 15 to 25 degrees below zero.

* Winds... northwest 20 to 30 mph with gusts around 50 mph.

* Temperatures... single digits tonight through Saturday.
Temperatures will drop to between zero and five degrees below
zero Saturday night into Sunday.

* Timing... late tonight through Sunday morning.

* Impacts... frost bite and hypothermia are possible if
precautions are not taken.

Precautionary/preparedness actions...

A Wind Chill Advisory means that very cold air and strong winds
will combine to generate low wind chills. This will result in
frost bite and lead to hypothermia if precautions are not taken.
If you must venture outdoors... make sure you wear a hat and
gloves.